sensor_id;sensor_type;location;lat;lon;timestamp;P1;durP1;ratioP1;P2;durP2;ratioP2
11342;SDS011;5726;42.160;24.746;2022-12-18T00:01:36;42.57;;;27.90;;
11342;SDS011;5726;42.160;24.746;2022-12-18T00:04:03;47.50;;;28.53;;
11342;SDS011;5726;42.160;24.746;2022-12-18T00:06:31;45.23;;;27.93;;
11342;SDS011;5726;42.160;24.746;2022-12-18T00:08:58;46.83;;;27.70;;
11342;SDS011;5726;42.160;24.746;2022-12-18T00:11:25;43.37;;;27.93;;
11342;SDS011;5726;42.160;24.746;2022-12-18T00:13:53;41.43;;;27.63;;
11342;SDS011;5726;42.160;24.746;2022-12-18T00:16:21;45.87;;;27.60;;
11342;SDS011;5726;42.160;24.746;2022-12-18T00:18:48;45.37;;;29.20;;
11342;SDS011;5726;42.160;24.746;2022-12-18T00:21:14;43.33;;;26.90;;
11342;SDS011;5726;42.160;24.746;2022-12-18T00:23:41;42.80;;;25.83;;
11342;SDS011;5726;42.160;24.746;2022-12-18T00:26:13;42.40;;;26.20;;
11342;SDS011;5726;42.160;24.746;2022-12-18T00:28:40;42.47;;;24.77;;
11342;SDS011;5726;42.160;24.746;2022-12-18T00:31:10;40.00;;;24.10;;
11342;SDS011;5726;42.160;24.746;2022-12-18T00:33:38;40.10;;;23.40;;
11342;SDS011;5726;42.160;24.746;2022-12-18T00:36:04;36.93;;;23.33;;
11342;SDS011;5726;42.160;24.746;2022-12-18T00:38:32;42.43;;;23.17;;
11342;SDS011;5726;42.160;24.746;2022-12-18T00:40:58;35.63;;;22.50;;
11342;SDS011;5726;42.160;24.746;2022-12-18T00:43:23;35.70;;;23.43;;
11342;SDS011;5726;42.160;24.746;2022-12-18T00:45:48;35.00;;;22.07;;
11342;SDS011;5726;42.160;24.746;2022-12-18T00:48:14;38.80;;;22.47;;
11342;SDS011;5726;42.160;24.746;2022-12-18T00:50:39;34.60;;;22.50;;
11342;SDS011;5726;42.160;24.746;2022-12-18T00:53:05;35.53;;;23.73;;
11342;SDS011;5726;42.160;24.746;2022-12-18T00:55:31;35.10;;;23.67;;
11342;SDS011;5726;42.160;24.746;2022-12-18T00:57:56;38.53;;;24.80;;
11342;SDS011;5726;42.160;24.746;2022-12-18T01:00:22;38.57;;;25.50;;
11342;SDS011;5726;42.160;24.746;2022-12-18T01:02:48;40.13;;;25.20;;
11342;SDS011;5726;42.160;24.746;2022-12-18T01:05:13;38.73;;;24.63;;
11342;SDS011;5726;42.160;24.746;2022-12-18T01:07:39;45.87;;;28.17;;
11342;SDS011;5726;42.160;24.746;2022-12-18T01:10:05;44.67;;;27.07;;
11342;SDS011;5726;42.160;24.746;2022-12-18T01:12:31;46.77;;;27.57;;
11342;SDS011;5726;42.160;24.746;2022-12-18T01:14:57;44.13;;;28.27;;
11342;SDS011;5726;42.160;24.746;2022-12-18T01:17:23;46.73;;;28.07;;
11342;SDS011;5726;42.160;24.746;2022-12-18T01:19:48;45.43;;;27.27;;
11342;SDS011;5726;42.160;24.746;2022-12-18T01:22:14;46.30;;;27.43;;
11342;SDS011;5726;42.160;24.746;2022-12-18T01:24:39;47.43;;;28.10;;
11342;SDS011;5726;42.160;24.746;2022-12-18T01:27:05;47.23;;;29.37;;
11342;SDS011;5726;42.160;24.746;2022-12-18T01:29:30;43.90;;;27.67;;
11342;SDS011;5726;42.160;24.746;2022-12-18T01:31:56;43.67;;;27.63;;
11342;SDS011;5726;42.160;24.746;2022-12-18T01:34:21;47.33;;;28.93;;
11342;SDS011;5726;42.160;24.746;2022-12-18T01:36:47;46.23;;;27.83;;
11342;SDS011;5726;42.160;24.746;2022-12-18T01:39:14;39.17;;;26.47;;
11342;SDS011;5726;42.160;24.746;2022-12-18T01:41:40;41.60;;;26.60;;
11342;SDS011;5726;42.160;24.746;2022-12-18T01:47:15;36.37;;;24.23;;
11342;SDS011;5726;42.160;24.746;2022-12-18T01:49:46;37.67;;;25.07;;
11342;SDS011;5726;42.160;24.746;2022-12-18T01:52:12;36.93;;;25.07;;
11342;SDS011;5726;42.160;24.746;2022-12-18T01:54:38;42.33;;;26.03;;
11342;SDS011;5726;42.160;24.746;2022-12-18T01:57:04;38.20;;;24.53;;
11342;SDS011;5726;42.160;24.746;2022-12-18T01:59:29;39.03;;;26.13;;
11342;SDS011;5726;42.160;24.746;2022-12-18T02:01:57;40.67;;;25.57;;
11342;SDS011;5726;42.160;24.746;2022-12-18T02:04:26;39.87;;;25.87;;
11342;SDS011;5726;42.160;24.746;2022-12-18T02:06:59;39.00;;;25.53;;
11342;SDS011;5726;42.160;24.746;2022-12-18T02:09:38;38.23;;;24.63;;
11342;SDS011;5726;42.160;24.746;2022-12-18T02:12:16;37.30;;;25.23;;
11342;SDS011;5726;42.160;24.746;2022-12-18T02:14:55;35.43;;;23.37;;
11342;SDS011;5726;42.160;24.746;2022-12-18T02:17:31;35.20;;;23.27;;
11342;SDS011;5726;42.160;24.746;2022-12-18T02:20:23;36.57;;;23.50;;
11342;SDS011;5726;42.160;24.746;2022-12-18T02:28:21;35.40;;;21.57;;
11342;SDS011;5726;42.160;24.746;2022-12-18T02:30:50;32.47;;;21.90;;
11342;SDS011;5726;42.160;24.746;2022-12-18T02:33:20;32.13;;;22.23;;
11342;SDS011;5726;42.160;24.746;2022-12-18T02:35:47;30.00;;;20.57;;
11342;SDS011;5726;42.160;24.746;2022-12-18T02:38:14;32.57;;;20.70;;
11342;SDS011;5726;42.160;24.746;2022-12-18T02:40:41;30.93;;;19.33;;
11342;SDS011;5726;42.160;24.746;2022-12-18T02:43:09;26.23;;;19.47;;
11342;SDS011;5726;42.160;24.746;2022-12-18T02:45:36;30.10;;;18.50;;
11342;SDS011;5726;42.160;24.746;2022-12-18T02:48:11;28.67;;;18.10;;
11342;SDS011;5726;42.160;24.746;2022-12-18T02:50:43;26.97;;;18.27;;
11342;SDS011;5726;42.160;24.746;2022-12-18T02:53:22;26.60;;;17.00;;
11342;SDS011;5726;42.160;24.746;2022-12-18T03:03:55;36.20;;;21.87;;
11342;SDS011;5726;42.160;24.746;2022-12-18T03:06:38;29.77;;;21.47;;
11342;SDS011;5726;42.160;24.746;2022-12-18T03:09:11;29.07;;;19.77;;
11342;SDS011;5726;42.160;24.746;2022-12-18T03:11:43;30.73;;;20.27;;
11342;SDS011;5726;42.160;24.746;2022-12-18T03:14:32;27.17;;;19.47;;
11342;SDS011;5726;42.160;24.746;2022-12-18T03:17:01;30.63;;;19.10;;
11342;SDS011;5726;42.160;24.746;2022-12-18T03:19:29;27.70;;;18.00;;
11342;SDS011;5726;42.160;24.746;2022-12-18T03:21:58;24.80;;;17.47;;
11342;SDS011;5726;42.160;24.746;2022-12-18T03:24:28;25.87;;;17.30;;
11342;SDS011;5726;42.160;24.746;2022-12-18T03:26:57;25.17;;;16.63;;
11342;SDS011;5726;42.160;24.746;2022-12-18T03:29:27;21.33;;;15.73;;
11342;SDS011;5726;42.160;24.746;2022-12-18T03:31:55;20.77;;;15.03;;
11342;SDS011;5726;42.160;24.746;2022-12-18T03:34:32;26.90;;;17.37;;
11342;SDS011;5726;42.160;24.746;2022-12-18T03:37:00;28.60;;;16.70;;
11342;SDS011;5726;42.160;24.746;2022-12-18T03:39:28;26.20;;;17.37;;
11342;SDS011;5726;42.160;24.746;2022-12-18T03:44:59;24.90;;;15.87;;
11342;SDS011;5726;42.160;24.746;2022-12-18T03:53:39;20.63;;;13.93;;
11342;SDS011;5726;42.160;24.746;2022-12-18T03:56:28;19.27;;;12.87;;
11342;SDS011;5726;42.160;24.746;2022-12-18T03:58:57;20.83;;;13.40;;
11342;SDS011;5726;42.160;24.746;2022-12-18T04:01:26;18.67;;;13.10;;
11342;SDS011;5726;42.160;24.746;2022-12-18T04:04:03;18.23;;;12.33;;
11342;SDS011;5726;42.160;24.746;2022-12-18T04:06:31;17.53;;;12.07;;
11342;SDS011;5726;42.160;24.746;2022-12-18T04:08:57;17.80;;;12.00;;
11342;SDS011;5726;42.160;24.746;2022-12-18T04:11:23;17.40;;;11.33;;
11342;SDS011;5726;42.160;24.746;2022-12-18T04:13:49;16.33;;;11.53;;
11342;SDS011;5726;42.160;24.746;2022-12-18T04:16:14;18.40;;;12.17;;
11342;SDS011;5726;42.160;24.746;2022-12-18T04:18:40;18.50;;;10.70;;
11342;SDS011;5726;42.160;24.746;2022-12-18T04:21:06;17.57;;;11.57;;
11342;SDS011;5726;42.160;24.746;2022-12-18T04:23:31;16.57;;;11.10;;
11342;SDS011;5726;42.160;24.746;2022-12-18T04:25:57;19.57;;;11.87;;
11342;SDS011;5726;42.160;24.746;2022-12-18T04:28:22;17.37;;;11.03;;
11342;SDS011;5726;42.160;24.746;2022-12-18T04:30:48;19.53;;;11.37;;
11342;SDS011;5726;42.160;24.746;2022-12-18T04:33:16;15.20;;;9.90;;
11342;SDS011;5726;42.160;24.746;2022-12-18T04:35:42;15.77;;;9.47;;
11342;SDS011;5726;42.160;24.746;2022-12-18T04:38:08;12.27;;;9.43;;
11342;SDS011;5726;42.160;24.746;2022-12-18T04:40:35;14.97;;;8.93;;
11342;SDS011;5726;42.160;24.746;2022-12-18T04:43:01;14.10;;;8.47;;
11342;SDS011;5726;42.160;24.746;2022-12-18T04:45:26;9.80;;;7.70;;
11342;SDS011;5726;42.160;24.746;2022-12-18T04:47:51;11.17;;;7.43;;
11342;SDS011;5726;42.160;24.746;2022-12-18T04:50:17;10.17;;;6.93;;
11342;SDS011;5726;42.160;24.746;2022-12-18T04:52:42;9.90;;;7.00;;
11342;SDS011;5726;42.160;24.746;2022-12-18T04:55:08;9.73;;;6.53;;
11342;SDS011;5726;42.160;24.746;2022-12-18T04:57:33;9.17;;;6.50;;
11342;SDS011;5726;42.160;24.746;2022-12-18T04:59:59;9.60;;;6.20;;
11342;SDS011;5726;42.160;24.746;2022-12-18T05:02:24;9.37;;;6.37;;
11342;SDS011;5726;42.160;24.746;2022-12-18T05:04:49;8.17;;;6.40;;
11342;SDS011;5726;42.160;24.746;2022-12-18T05:07:15;9.47;;;6.10;;
11342;SDS011;5726;42.160;24.746;2022-12-18T05:09:40;10.60;;;6.63;;
11342;SDS011;5726;42.160;24.746;2022-12-18T05:12:06;10.27;;;6.60;;
11342;SDS011;5726;42.160;24.746;2022-12-18T05:14:31;9.93;;;6.60;;
11342;SDS011;5726;42.160;24.746;2022-12-18T05:16:57;12.23;;;6.70;;
11342;SDS011;5726;42.160;24.746;2022-12-18T05:19:22;9.70;;;6.33;;
11342;SDS011;5726;42.160;24.746;2022-12-18T05:21:47;8.97;;;6.33;;
11342;SDS011;5726;42.160;24.746;2022-12-18T05:24:13;10.20;;;6.03;;
11342;SDS011;5726;42.160;24.746;2022-12-18T05:26:38;7.17;;;5.50;;
11342;SDS011;5726;42.160;24.746;2022-12-18T05:29:04;8.17;;;5.30;;
11342;SDS011;5726;42.160;24.746;2022-12-18T05:31:29;8.13;;;5.10;;
11342;SDS011;5726;42.160;24.746;2022-12-18T05:33:55;8.67;;;6.50;;
11342;SDS011;5726;42.160;24.746;2022-12-18T05:36:20;7.83;;;5.50;;
11342;SDS011;5726;42.160;24.746;2022-12-18T05:38:46;10.43;;;6.20;;
11342;SDS011;5726;42.160;24.746;2022-12-18T05:41:11;6.97;;;5.87;;
11342;SDS011;5726;42.160;24.746;2022-12-18T05:43:37;8.10;;;5.67;;
11342;SDS011;5726;42.160;24.746;2022-12-18T05:46:04;8.13;;;5.80;;
11342;SDS011;5726;42.160;24.746;2022-12-18T05:48:31;9.37;;;6.00;;
11342;SDS011;5726;42.160;24.746;2022-12-18T05:51:02;7.77;;;5.40;;
11342;SDS011;5726;42.160;24.746;2022-12-18T05:53:29;11.03;;;6.40;;
11342;SDS011;5726;42.160;24.746;2022-12-18T05:55:54;9.40;;;6.70;;
11342;SDS011;5726;42.160;24.746;2022-12-18T05:58:24;24.07;;;14.87;;
11342;SDS011;5726;42.160;24.746;2022-12-18T06:00:49;8.00;;;5.40;;
11342;SDS011;5726;42.160;24.746;2022-12-18T06:03:15;16.60;;;6.90;;
11342;SDS011;5726;42.160;24.746;2022-12-18T06:05:42;8.93;;;6.07;;
11342;SDS011;5726;42.160;24.746;2022-12-18T06:08:09;10.67;;;5.80;;
11342;SDS011;5726;42.160;24.746;2022-12-18T06:10:35;9.37;;;5.00;;
11342;SDS011;5726;42.160;24.746;2022-12-18T06:13:01;7.60;;;5.33;;
11342;SDS011;5726;42.160;24.746;2022-12-18T06:15:26;7.57;;;5.63;;
11342;SDS011;5726;42.160;24.746;2022-12-18T06:17:52;17.83;;;11.37;;
11342;SDS011;5726;42.160;24.746;2022-12-18T06:20:17;13.33;;;8.97;;
11342;SDS011;5726;42.160;24.746;2022-12-18T06:22:43;15.90;;;10.43;;
11342;SDS011;5726;42.160;24.746;2022-12-18T06:25:09;42.70;;;29.97;;
11342;SDS011;5726;42.160;24.746;2022-12-18T06:27:34;9.53;;;6.13;;
11342;SDS011;5726;42.160;24.746;2022-12-18T06:30:01;9.47;;;6.37;;
11342;SDS011;5726;42.160;24.746;2022-12-18T06:32:27;10.57;;;6.00;;
11342;SDS011;5726;42.160;24.746;2022-12-18T06:34:53;10.00;;;5.93;;
11342;SDS011;5726;42.160;24.746;2022-12-18T06:37:20;9.03;;;6.80;;
11342;SDS011;5726;42.160;24.746;2022-12-18T06:39:46;16.23;;;10.17;;
11342;SDS011;5726;42.160;24.746;2022-12-18T06:42:11;14.50;;;8.50;;
11342;SDS011;5726;42.160;24.746;2022-12-18T06:44:37;11.17;;;6.67;;
11342;SDS011;5726;42.160;24.746;2022-12-18T06:47:02;9.77;;;5.93;;
11342;SDS011;5726;42.160;24.746;2022-12-18T06:49:28;9.53;;;5.97;;
11342;SDS011;5726;42.160;24.746;2022-12-18T06:51:53;7.90;;;5.90;;
11342;SDS011;5726;42.160;24.746;2022-12-18T06:54:19;9.13;;;6.20;;
11342;SDS011;5726;42.160;24.746;2022-12-18T06:56:45;9.37;;;6.57;;
11342;SDS011;5726;42.160;24.746;2022-12-18T06:59:12;13.57;;;7.00;;
11342;SDS011;5726;42.160;24.746;2022-12-18T07:01:38;10.27;;;7.60;;
11342;SDS011;5726;42.160;24.746;2022-12-18T07:04:03;11.43;;;7.63;;
11342;SDS011;5726;42.160;24.746;2022-12-18T07:06:29;11.60;;;7.20;;
11342;SDS011;5726;42.160;24.746;2022-12-18T07:08:54;47.77;;;29.67;;
11342;SDS011;5726;42.160;24.746;2022-12-18T07:11:20;35.50;;;20.43;;
11342;SDS011;5726;42.160;24.746;2022-12-18T07:13:46;38.57;;;22.93;;
11342;SDS011;5726;42.160;24.746;2022-12-18T07:16:15;11.80;;;8.50;;
11342;SDS011;5726;42.160;24.746;2022-12-18T07:18:43;10.30;;;6.87;;
11342;SDS011;5726;42.160;24.746;2022-12-18T07:21:10;11.53;;;7.13;;
11342;SDS011;5726;42.160;24.746;2022-12-18T07:23:38;10.53;;;7.20;;
11342;SDS011;5726;42.160;24.746;2022-12-18T07:26:05;9.93;;;6.70;;
11342;SDS011;5726;42.160;24.746;2022-12-18T07:28:33;11.50;;;7.17;;
11342;SDS011;5726;42.160;24.746;2022-12-18T07:31:02;8.90;;;6.67;;
11342;SDS011;5726;42.160;24.746;2022-12-18T07:33:32;9.13;;;6.53;;
11342;SDS011;5726;42.160;24.746;2022-12-18T07:35:58;8.90;;;6.63;;
11342;SDS011;5726;42.160;24.746;2022-12-18T07:38:24;11.83;;;7.13;;
11342;SDS011;5726;42.160;24.746;2022-12-18T07:40:50;12.30;;;6.83;;
11342;SDS011;5726;42.160;24.746;2022-12-18T07:43:15;8.47;;;6.43;;
11342;SDS011;5726;42.160;24.746;2022-12-18T07:45:41;11.57;;;7.60;;
11342;SDS011;5726;42.160;24.746;2022-12-18T07:48:07;9.23;;;6.47;;
11342;SDS011;5726;42.160;24.746;2022-12-18T07:50:33;8.37;;;6.47;;
11342;SDS011;5726;42.160;24.746;2022-12-18T07:52:58;18.33;;;12.07;;
11342;SDS011;5726;42.160;24.746;2022-12-18T07:55:28;20.50;;;13.10;;
11342;SDS011;5726;42.160;24.746;2022-12-18T07:57:57;13.13;;;6.97;;
11342;SDS011;5726;42.160;24.746;2022-12-18T08:00:25;10.13;;;6.80;;
11342;SDS011;5726;42.160;24.746;2022-12-18T08:02:51;9.80;;;6.27;;
11342;SDS011;5726;42.160;24.746;2022-12-18T08:05:16;11.20;;;7.03;;
11342;SDS011;5726;42.160;24.746;2022-12-18T08:07:42;9.63;;;6.67;;
11342;SDS011;5726;42.160;24.746;2022-12-18T08:10:07;12.97;;;6.17;;
11342;SDS011;5726;42.160;24.746;2022-12-18T08:12:33;9.70;;;6.97;;
11342;SDS011;5726;42.160;24.746;2022-12-18T08:14:58;12.10;;;7.73;;
11342;SDS011;5726;42.160;24.746;2022-12-18T08:17:24;13.33;;;7.33;;
11342;SDS011;5726;42.160;24.746;2022-12-18T08:19:50;14.27;;;8.17;;
11342;SDS011;5726;42.160;24.746;2022-12-18T08:22:15;17.30;;;11.77;;
11342;SDS011;5726;42.160;24.746;2022-12-18T08:24:40;30.03;;;17.57;;
11342;SDS011;5726;42.160;24.746;2022-12-18T08:27:06;12.47;;;7.87;;
11342;SDS011;5726;42.160;24.746;2022-12-18T08:29:31;11.10;;;6.83;;
11342;SDS011;5726;42.160;24.746;2022-12-18T08:31:57;13.73;;;8.03;;
11342;SDS011;5726;42.160;24.746;2022-12-18T08:34:22;11.03;;;6.80;;
11342;SDS011;5726;42.160;24.746;2022-12-18T08:36:48;13.00;;;6.77;;
11342;SDS011;5726;42.160;24.746;2022-12-18T08:39:14;12.33;;;7.20;;
11342;SDS011;5726;42.160;24.746;2022-12-18T08:41:39;11.10;;;6.60;;
11342;SDS011;5726;42.160;24.746;2022-12-18T08:44:06;16.93;;;10.47;;
11342;SDS011;5726;42.160;24.746;2022-12-18T08:46:51;15.77;;;10.70;;
11342;SDS011;5726;42.160;24.746;2022-12-18T08:49:16;13.03;;;7.97;;
11342;SDS011;5726;42.160;24.746;2022-12-18T08:51:41;13.43;;;7.70;;
11342;SDS011;5726;42.160;24.746;2022-12-18T08:54:07;11.10;;;7.77;;
11342;SDS011;5726;42.160;24.746;2022-12-18T08:56:35;10.50;;;7.40;;
11342;SDS011;5726;42.160;24.746;2022-12-18T08:59:01;15.00;;;9.03;;
11342;SDS011;5726;42.160;24.746;2022-12-18T09:01:27;13.57;;;8.80;;
11342;SDS011;5726;42.160;24.746;2022-12-18T09:03:53;13.13;;;8.83;;
11342;SDS011;5726;42.160;24.746;2022-12-18T09:06:19;13.83;;;8.47;;
11342;SDS011;5726;42.160;24.746;2022-12-18T09:08:45;15.57;;;9.13;;
11342;SDS011;5726;42.160;24.746;2022-12-18T09:11:22;12.17;;;8.33;;
11342;SDS011;5726;42.160;24.746;2022-12-18T09:13:52;12.80;;;7.87;;
11342;SDS011;5726;42.160;24.746;2022-12-18T09:16:19;12.07;;;7.90;;
11342;SDS011;5726;42.160;24.746;2022-12-18T09:18:46;12.70;;;7.37;;
11342;SDS011;5726;42.160;24.746;2022-12-18T09:21:13;12.97;;;7.70;;
11342;SDS011;5726;42.160;24.746;2022-12-18T09:23:44;11.13;;;7.60;;
11342;SDS011;5726;42.160;24.746;2022-12-18T09:26:16;12.53;;;7.80;;
11342;SDS011;5726;42.160;24.746;2022-12-18T09:28:42;12.67;;;7.70;;
11342;SDS011;5726;42.160;24.746;2022-12-18T09:31:08;10.87;;;7.70;;
11342;SDS011;5726;42.160;24.746;2022-12-18T09:33:34;13.80;;;8.30;;
11342;SDS011;5726;42.160;24.746;2022-12-18T09:36:01;11.83;;;7.53;;
11342;SDS011;5726;42.160;24.746;2022-12-18T09:38:31;15.93;;;8.17;;
11342;SDS011;5726;42.160;24.746;2022-12-18T09:40:59;10.57;;;7.43;;
11342;SDS011;5726;42.160;24.746;2022-12-18T09:43:33;12.30;;;8.20;;
11342;SDS011;5726;42.160;24.746;2022-12-18T09:46:01;13.40;;;7.40;;
11342;SDS011;5726;42.160;24.746;2022-12-18T09:48:32;12.47;;;8.20;;
11342;SDS011;5726;42.160;24.746;2022-12-18T09:51:09;13.20;;;7.30;;
11342;SDS011;5726;42.160;24.746;2022-12-18T09:53:44;13.60;;;7.43;;
11342;SDS011;5726;42.160;24.746;2022-12-18T09:56:34;13.07;;;7.70;;
11342;SDS011;5726;42.160;24.746;2022-12-18T09:59:02;13.93;;;8.27;;
11342;SDS011;5726;42.160;24.746;2022-12-18T10:01:29;13.27;;;8.43;;
11342;SDS011;5726;42.160;24.746;2022-12-18T10:03:56;12.67;;;7.67;;
11342;SDS011;5726;42.160;24.746;2022-12-18T10:06:24;11.00;;;7.77;;
11342;SDS011;5726;42.160;24.746;2022-12-18T10:20:30;12.37;;;7.07;;
11342;SDS011;5726;42.160;24.746;2022-12-18T10:28:13;11.50;;;8.03;;
11342;SDS011;5726;42.160;24.746;2022-12-18T10:30:40;10.00;;;7.17;;
11342;SDS011;5726;42.160;24.746;2022-12-18T10:33:10;13.63;;;7.87;;
11342;SDS011;5726;42.160;24.746;2022-12-18T10:35:39;12.20;;;7.87;;
11342;SDS011;5726;42.160;24.746;2022-12-18T10:43:13;12.70;;;8.00;;
11342;SDS011;5726;42.160;24.746;2022-12-18T10:45:41;14.20;;;8.00;;
11342;SDS011;5726;42.160;24.746;2022-12-18T10:48:17;10.93;;;7.37;;
11342;SDS011;5726;42.160;24.746;2022-12-18T10:50:46;9.40;;;6.53;;
11342;SDS011;5726;42.160;24.746;2022-12-18T10:53:17;14.40;;;9.10;;
11342;SDS011;5726;42.160;24.746;2022-12-18T10:55:47;12.73;;;8.10;;
11342;SDS011;5726;42.160;24.746;2022-12-18T10:58:29;14.83;;;8.57;;
11342;SDS011;5726;42.160;24.746;2022-12-18T11:01:15;22.90;;;11.33;;
11342;SDS011;5726;42.160;24.746;2022-12-18T11:03:46;17.17;;;8.70;;
11342;SDS011;5726;42.160;24.746;2022-12-18T11:06:25;14.47;;;8.23;;
11342;SDS011;5726;42.160;24.746;2022-12-18T11:09:36;15.73;;;8.70;;
11342;SDS011;5726;42.160;24.746;2022-12-18T11:11:51;12.10;;;7.27;;
11342;SDS011;5726;42.160;24.746;2022-12-18T11:14:52;10.63;;;7.20;;
11342;SDS011;5726;42.160;24.746;2022-12-18T11:19:58;11.07;;;7.17;;
11342;SDS011;5726;42.160;24.746;2022-12-18T11:27:36;14.77;;;9.23;;
11342;SDS011;5726;42.160;24.746;2022-12-18T11:30:10;14.47;;;9.80;;
11342;SDS011;5726;42.160;24.746;2022-12-18T11:32:44;15.30;;;9.30;;
11342;SDS011;5726;42.160;24.746;2022-12-18T11:35:16;15.87;;;9.90;;
11342;SDS011;5726;42.160;24.746;2022-12-18T11:37:43;19.00;;;9.97;;
11342;SDS011;5726;42.160;24.746;2022-12-18T11:40:14;22.00;;;11.03;;
11342;SDS011;5726;42.160;24.746;2022-12-18T11:42:49;20.80;;;11.53;;
11342;SDS011;5726;42.160;24.746;2022-12-18T11:45:25;22.20;;;13.07;;
11342;SDS011;5726;42.160;24.746;2022-12-18T11:48:13;21.97;;;12.87;;
11342;SDS011;5726;42.160;24.746;2022-12-18T11:50:54;23.23;;;15.23;;
11342;SDS011;5726;42.160;24.746;2022-12-18T11:53:21;22.63;;;14.70;;
11342;SDS011;5726;42.160;24.746;2022-12-18T11:58:54;33.87;;;19.20;;
11342;SDS011;5726;42.160;24.746;2022-12-18T12:26:45;24.10;;;15.13;;
11342;SDS011;5726;42.160;24.746;2022-12-18T12:29:26;23.20;;;14.73;;
11342;SDS011;5726;42.160;24.746;2022-12-18T12:34:41;21.37;;;12.90;;
11342;SDS011;5726;42.160;24.746;2022-12-18T12:37:38;26.57;;;16.97;;
11342;SDS011;5726;42.160;24.746;2022-12-18T12:40:28;22.20;;;13.17;;
11342;SDS011;5726;42.160;24.746;2022-12-18T12:42:59;17.70;;;11.27;;
11342;SDS011;5726;42.160;24.746;2022-12-18T12:45:55;20.97;;;13.17;;
11342;SDS011;5726;42.160;24.746;2022-12-18T12:48:29;31.37;;;18.97;;
11342;SDS011;5726;42.160;24.746;2022-12-18T12:50:57;20.50;;;12.90;;
11342;SDS011;5726;42.160;24.746;2022-12-18T12:53:26;22.80;;;13.47;;
11342;SDS011;5726;42.160;24.746;2022-12-18T12:55:56;18.30;;;11.63;;
11342;SDS011;5726;42.160;24.746;2022-12-18T13:01:00;21.00;;;12.57;;
11342;SDS011;5726;42.160;24.746;2022-12-18T13:03:52;22.67;;;14.43;;
11342;SDS011;5726;42.160;24.746;2022-12-18T13:06:23;23.87;;;14.77;;
11342;SDS011;5726;42.160;24.746;2022-12-18T13:09:01;22.53;;;13.90;;
11342;SDS011;5726;42.160;24.746;2022-12-18T13:11:49;20.70;;;13.20;;
11342;SDS011;5726;42.160;24.746;2022-12-18T13:14:33;22.17;;;13.27;;
11342;SDS011;5726;42.160;24.746;2022-12-18T13:19:39;25.30;;;15.87;;
11342;SDS011;5726;42.160;24.746;2022-12-18T13:22:12;60.70;;;34.97;;
11342;SDS011;5726;42.160;24.746;2022-12-18T13:24:50;26.50;;;15.67;;
11342;SDS011;5726;42.160;24.746;2022-12-18T13:40:58;82.53;;;45.90;;
11342;SDS011;5726;42.160;24.746;2022-12-18T13:43:41;29.23;;;14.40;;
11342;SDS011;5726;42.160;24.746;2022-12-18T13:48:57;20.40;;;13.10;;
11342;SDS011;5726;42.160;24.746;2022-12-18T13:51:26;21.20;;;11.57;;
11342;SDS011;5726;42.160;24.746;2022-12-18T13:53:59;19.57;;;11.63;;
11342;SDS011;5726;42.160;24.746;2022-12-18T13:56:28;19.27;;;11.37;;
11342;SDS011;5726;42.160;24.746;2022-12-18T14:02:28;19.13;;;12.07;;
11342;SDS011;5726;42.160;24.746;2022-12-18T14:04:44;20.10;;;11.20;;
11342;SDS011;5726;42.160;24.746;2022-12-18T14:07:11;15.97;;;9.77;;
11342;SDS011;5726;42.160;24.746;2022-12-18T14:09:41;16.53;;;10.77;;
11342;SDS011;5726;42.160;24.746;2022-12-18T14:12:44;18.17;;;11.03;;
11342;SDS011;5726;42.160;24.746;2022-12-18T14:18:03;14.20;;;9.50;;
11342;SDS011;5726;42.160;24.746;2022-12-18T14:20:47;17.27;;;10.70;;
11342;SDS011;5726;42.160;24.746;2022-12-18T14:25:52;17.37;;;10.33;;
11342;SDS011;5726;42.160;24.746;2022-12-18T14:28:17;15.80;;;10.27;;
11342;SDS011;5726;42.160;24.746;2022-12-18T14:30:44;15.63;;;9.90;;
11342;SDS011;5726;42.160;24.746;2022-12-18T14:33:12;17.37;;;11.23;;
11342;SDS011;5726;42.160;24.746;2022-12-18T14:35:59;17.77;;;11.10;;
11342;SDS011;5726;42.160;24.746;2022-12-18T14:38:34;15.43;;;10.27;;
11342;SDS011;5726;42.160;24.746;2022-12-18T14:41:11;20.63;;;11.40;;
11342;SDS011;5726;42.160;24.746;2022-12-18T14:43:42;19.27;;;10.40;;
11342;SDS011;5726;42.160;24.746;2022-12-18T14:46:28;47.57;;;29.23;;
11342;SDS011;5726;42.160;24.746;2022-12-18T14:48:57;26.27;;;13.90;;
11342;SDS011;5726;42.160;24.746;2022-12-18T14:51:25;20.13;;;11.50;;
11342;SDS011;5726;42.160;24.746;2022-12-18T14:54:03;22.23;;;12.67;;
11342;SDS011;5726;42.160;24.746;2022-12-18T14:56:35;26.87;;;14.47;;
11342;SDS011;5726;42.160;24.746;2022-12-18T15:04:46;17.33;;;10.50;;
11342;SDS011;5726;42.160;24.746;2022-12-18T15:07:14;18.17;;;10.80;;
11342;SDS011;5726;42.160;24.746;2022-12-18T15:09:43;32.47;;;20.20;;
11342;SDS011;5726;42.160;24.746;2022-12-18T15:12:34;123.47;;;75.10;;
11342;SDS011;5726;42.160;24.746;2022-12-18T15:15:02;23.43;;;15.00;;
11342;SDS011;5726;42.160;24.746;2022-12-18T15:17:29;84.03;;;53.80;;
11342;SDS011;5726;42.160;24.746;2022-12-18T15:20:01;29.33;;;18.80;;
11342;SDS011;5726;42.160;24.746;2022-12-18T15:22:33;22.40;;;11.93;;
11342;SDS011;5726;42.160;24.746;2022-12-18T15:25:01;19.07;;;12.03;;
11342;SDS011;5726;42.160;24.746;2022-12-18T15:27:45;19.70;;;11.97;;
11342;SDS011;5726;42.160;24.746;2022-12-18T15:30:16;19.63;;;12.27;;
11342;SDS011;5726;42.160;24.746;2022-12-18T15:32:43;19.13;;;12.23;;
11342;SDS011;5726;42.160;24.746;2022-12-18T15:35:23;24.97;;;13.50;;
11342;SDS011;5726;42.160;24.746;2022-12-18T15:37:50;21.40;;;13.43;;
11342;SDS011;5726;42.160;24.746;2022-12-18T15:40:20;44.80;;;21.30;;
11342;SDS011;5726;42.160;24.746;2022-12-18T15:42:47;30.80;;;16.17;;
11342;SDS011;5726;42.160;24.746;2022-12-18T15:45:32;24.73;;;14.87;;
11342;SDS011;5726;42.160;24.746;2022-12-18T15:47:58;22.57;;;14.73;;
11342;SDS011;5726;42.160;24.746;2022-12-18T15:50:24;26.27;;;15.03;;
11342;SDS011;5726;42.160;24.746;2022-12-18T15:52:51;28.23;;;16.53;;
11342;SDS011;5726;42.160;24.746;2022-12-18T15:55:22;78.30;;;47.47;;
11342;SDS011;5726;42.160;24.746;2022-12-18T15:58:07;65.70;;;38.43;;
11342;SDS011;5726;42.160;24.746;2022-12-18T16:00:35;24.37;;;15.57;;
11342;SDS011;5726;42.160;24.746;2022-12-18T16:03:03;31.67;;;19.20;;
11342;SDS011;5726;42.160;24.746;2022-12-18T16:05:29;25.27;;;14.07;;
11342;SDS011;5726;42.160;24.746;2022-12-18T16:07:55;23.50;;;13.60;;
11342;SDS011;5726;42.160;24.746;2022-12-18T16:10:20;21.40;;;13.07;;
11342;SDS011;5726;42.160;24.746;2022-12-18T16:12:46;22.50;;;13.53;;
11342;SDS011;5726;42.160;24.746;2022-12-18T16:15:12;24.70;;;13.87;;
11342;SDS011;5726;42.160;24.746;2022-12-18T16:17:41;24.30;;;14.13;;
11342;SDS011;5726;42.160;24.746;2022-12-18T16:20:16;21.47;;;12.67;;
11342;SDS011;5726;42.160;24.746;2022-12-18T16:22:43;23.27;;;13.10;;
11342;SDS011;5726;42.160;24.746;2022-12-18T16:27:48;20.33;;;12.40;;
11342;SDS011;5726;42.160;24.746;2022-12-18T16:30:14;20.47;;;12.27;;
11342;SDS011;5726;42.160;24.746;2022-12-18T16:32:41;18.40;;;11.23;;
11342;SDS011;5726;42.160;24.746;2022-12-18T16:35:09;19.33;;;11.77;;
11342;SDS011;5726;42.160;24.746;2022-12-18T16:37:35;19.97;;;12.20;;
11342;SDS011;5726;42.160;24.746;2022-12-18T16:40:01;21.77;;;13.00;;
11342;SDS011;5726;42.160;24.746;2022-12-18T16:42:26;21.00;;;11.73;;
11342;SDS011;5726;42.160;24.746;2022-12-18T16:44:52;22.67;;;12.00;;
11342;SDS011;5726;42.160;24.746;2022-12-18T16:47:17;18.47;;;11.40;;